Terminal Aerodrome Forecast
Issued by NWS

Home | Current Version | Previous Version | Graphics & Text | Print | Product List | Glossary On
Versions: 1 2 3 4 5 6 7 8 9 10 11 12 13 14 15 16 17
000
FTUS43 KBIS 240349 AAA
TAFDIK
TAF AMD
KDIK 240349Z 2404/2424 33008KT P6SM SCT090
     FM241300 30013G21KT P6SM SKC
     FM241500 33018G26KT P6SM SKC=

USA.gov is the U.S. government's official web portal to all federal, state and local government web resources and services.